Time;durP1;ratioP1;P1;durP2;ratioP2;P2;SDS_P1;SDS_P2;PMS_P1;PMS_P2;Temp;Humidity;BMP_temperature;BMP_pressure;BME280_temperature;BME280_humidity;BME280_pressure;Samples;Min_cycle;Max_cycle;Signal;HPM_P1;HPM_P2
2024/03/25 00:00:45;;;;;;;6.00;5.40;;;;;;;5.44;100.00;99114.23;87443;279;139292;-76
2024/03/25 00:02:46;;;;;;;7.50;5.90;;;;;;;5.41;100.00;99115.77;87636;267;23998;-76
2024/03/25 00:04:46;;;;;;;6.80;6.20;;;;;;;5.34;100.00;99120.94;87427;270;137679;-76
2024/03/25 00:06:47;;;;;;;6.80;5.80;;;;;;;5.28;100.00;99124.64;87411;264;22847;-78
2024/03/25 00:08:48;;;;;;;5.90;5.40;;;;;;;5.24;100.00;99126.55;87330;276;138003;-78
2024/03/25 00:10:49;;;;;;;5.80;5.10;;;;;;;5.23;100.00;99124.04;87490;272;22598;-76
2024/03/25 00:12:54;;;;;;;8.00;5.60;;;;;;;5.23;100.00;99121.05;87386;272;137833;-77
2024/03/25 00:14:55;;;;;;;;;;;;;;;5.21;100.00;99120.69;87496;268;26576;-76
2024/03/25 00:16:55;;;;;;;5.70;4.90;;;;;;;5.21;100.00;99118.42;87498;273;124024;-76
2024/03/25 00:18:56;;;;;;;6.80;5.80;;;;;;;5.19;100.00;99117.63;87521;272;24130;-77
2024/03/25 00:20:57;;;;;;;7.50;5.80;;;;;;;5.19;100.00;99115.30;87584;271;137963;-76
2024/03/25 00:22:58;;;;;;;5.60;5.10;;;;;;;5.18;100.00;99111.23;87443;268;22551;-76
2024/03/25 00:24:58;;;;;;;6.20;5.50;;;;;;;5.19;100.00;99108.17;87867;270;137452;-77
2024/03/25 00:26:59;;;;;;;7.10;6.00;;;;;;;5.23;100.00;99103.40;87583;273;24000;-76
2024/03/25 00:29:00;;;;;;;6.10;4.90;;;;;;;5.24;100.00;99107.69;87480;271;137255;-77
2024/03/25 00:31:00;;;;;;;7.10;5.50;;;;;;;5.23;100.00;99111.29;87680;273;22563;-77
2024/03/25 00:33:01;;;;;;;7.10;5.30;;;;;;;5.21;100.00;99107.69;87282;279;137400;-76
2024/03/25 00:35:02;;;;;;;6.30;5.60;;;;;;;5.22;100.00;99104.77;87461;271;22567;-77
2024/03/25 00:37:03;;;;;;;6.60;5.80;;;;;;;5.22;100.00;99101.81;87394;270;136342;-75
2024/03/25 00:39:04;;;;;;;5.80;4.60;;;;;;;5.20;100.00;99098.90;87471;272;23590;-74
2024/03/25 00:41:05;;;;;;;5.70;5.10;;;;;;;5.19;100.00;99096.89;87317;272;136444;-74
2024/03/25 00:43:06;;;;;;;5.60;4.90;;;;;;;5.15;100.00;99091.36;87637;268;22542;-72
2024/03/25 00:45:07;;;;;;;6.10;5.00;;;;;;;5.13;100.00;99090.52;87450;270;137834;-74
2024/03/25 00:47:08;;;;;;;10.10;4.80;;;;;;;5.12;100.00;99084.20;87656;275;24014;-73
2024/03/25 00:49:10;;;;;;;4.30;3.60;;;;;;;5.10;100.00;99083.73;87470;271;137241;-76
2024/03/25 00:51:11;;;;;;;5.90;5.00;;;;;;;5.09;100.00;99081.16;87546;268;24831;-74
2024/03/25 00:53:13;;;;;;;4.80;4.30;;;;;;;5.07;100.00;99085.08;87616;272;136869;-75
2024/03/25 00:55:14;;;;;;;5.70;4.90;;;;;;;5.05;100.00;99081.84;87551;276;23775;-74
2024/03/25 00:57:15;;;;;;;5.20;4.70;;;;;;;5.03;100.00;99081.50;87266;276;137481;-74
2024/03/25 00:59:16;;;;;;;6.40;5.20;;;;;;;5.03;100.00;99080.11;87490;270;22572;-73
2024/03/25 01:01:17;;;;;;;6.90;4.70;;;;;;;5.02;100.00;99084.08;87507;279;136697;-75
2024/03/25 01:03:17;;;;;;;6.30;4.60;;;;;;;5.02;100.00;99092.39;87498;277;22640;-76
2024/03/25 01:05:18;;;;;;;5.40;4.30;;;;;;;5.01;100.00;99094.66;87391;270;136353;-78
2024/03/25 01:07:19;;;;;;;5.80;4.80;;;;;;;5.00;100.00;99102.86;87489;276;22801;-75
2024/03/25 01:09:21;;;;;;;6.80;4.50;;;;;;;4.99;100.00;99101.58;87305;272;136157;-77
2024/03/25 01:11:22;;;;;;;5.20;4.70;;;;;;;5.00;100.00;99094.96;87356;269;23228;-77
2024/03/25 01:13:23;;;;;;;5.70;4.50;;;;;;;5.00;100.00;99089.13;87300;276;138127;-75
2024/03/25 01:15:23;;;;;;;9.00;5.20;;;;;;;4.99;100.00;99085.36;87645;266;24045;-75
2024/03/25 01:17:24;;;;;;;7.70;6.00;;;;;;;4.98;100.00;99086.05;87491;272;136716;-76
2024/03/25 01:19:25;;;;;;;5.00;4.50;;;;;;;4.96;100.00;99080.05;87385;276;24164;-78
2024/03/25 01:21:26;;;;;;;5.20;4.50;;;;;;;4.93;100.00;99072.34;87524;276;136010;-79
2024/03/25 01:23:27;;;;;;;5.60;4.00;;;;;;;4.89;100.00;99076.14;87487;275;25133;-74
2024/03/25 01:25:27;;;;;;;7.50;5.10;;;;;;;4.83;100.00;99071.55;87364;267;137836;-76
2024/03/25 01:27:28;;;;;;;6.50;5.10;;;;;;;4.77;100.00;99073.53;87321;273;22672;-73
2024/03/25 01:29:29;;;;;;;5.20;4.70;;;;;;;4.73;100.00;99071.36;87617;274;136627;-73
2024/03/25 01:31:30;;;;;;;6.50;5.70;;;;;;;4.69;100.00;99075.34;87581;270;22566;-75
2024/03/25 01:33:30;;;;;;;5.30;4.70;;;;;;;4.67;100.00;99076.47;87369;271;137651;-74
2024/03/25 01:35:32;;;;;;;6.70;5.10;;;;;;;4.66;100.00;99073.52;87447;272;23881;-75
2024/03/25 01:37:32;;;;;;;6.90;5.50;;;;;;;4.64;100.00;99066.00;87346;279;136330;-76
2024/03/25 01:39:33;;;;;;;5.40;4.90;;;;;;;4.64;100.00;99060.97;87386;271;24116;-75
2024/03/25 01:41:34;;;;;;;7.30;5.30;;;;;;;4.63;100.00;99060.61;87308;276;136442;-76
2024/03/25 01:43:35;;;;;;;5.50;4.70;;;;;;;4.62;100.00;99057.45;87413;271;22590;-74
2024/03/25 01:45:36;;;;;;;7.30;5.90;;;;;;;4.62;100.00;99053.14;87460;268;136594;-75
2024/03/25 01:47:39;;;;;;;6.00;5.40;;;;;;;4.58;100.00;99053.58;87320;271;24268;-75
2024/03/25 01:49:40;;;;;;;6.60;4.70;;;;;;;4.55;100.00;99057.34;87368;279;136376;-76
2024/03/25 01:51:42;;;;;;;7.40;5.30;;;;;;;4.52;100.00;99058.89;87509;280;22567;-74
2024/03/25 01:53:44;;;;;;;5.20;4.70;;;;;;;4.47;100.00;99065.79;87395;281;136689;-75
2024/03/25 01:55:46;;;;;;;5.70;4.70;;;;;;;4.42;100.00;99066.17;87503;268;22604;-75
2024/03/25 01:57:47;;;;;;;6.80;5.10;;;;;;;4.39;100.00;99074.20;87374;276;136090;-76
2024/03/25 01:59:48;;;;;;;6.90;6.20;;;;;;;4.39;100.00;99078.53;87435;280;23064;-76
2024/03/25 02:01:50;;;;;;;7.00;5.50;;;;;;;4.37;100.00;99079.05;87321;279;136054;-76
2024/03/25 02:03:53;;;;;;;9.10;6.60;;;;;;;4.37;100.00;99079.99;87690;271;22525;-76
2024/03/25 02:06:00;;;;;;;5.30;4.80;;;;;;;4.38;100.00;99080.84;87492;272;136688;-76
2024/03/25 02:08:03;;;;;;;8.20;5.60;;;;;;;4.40;100.00;99082.09;87611;280;23944;-77
2024/03/25 02:10:04;;;;;;;7.10;6.00;;;;;;;4.39;100.00;99079.15;88301;266;25847;-75
2024/03/25 02:12:06;;;;;;;6.20;5.60;;;;;;;4.39;100.00;99077.10;89029;271;136339;-73
2024/03/25 02:14:07;;;;;;;6.80;6.10;;;;;;;4.38;100.00;99077.14;89685;274;22579;-73
2024/03/25 02:16:07;;;;;;;6.60;5.80;;;;;;;4.38;100.00;99075.64;89395;270;136423;-73
2024/03/25 02:18:08;;;;;;;7.10;5.70;;;;;;;4.45;100.00;99075.17;89412;271;22573;-75
2024/03/25 02:20:15;;;;;;;6.00;5.30;;;;;;;4.45;100.00;99080.91;88708;272;136744;-75
2024/03/25 02:22:16;;;;;;;6.80;6.00;;;;;;;4.47;100.00;99085.77;87720;267;23693;-76
2024/03/25 02:24:20;;;;;;;6.90;6.20;;;;;;;4.48;100.00;99085.01;87560;270;138184;-76
2024/03/25 02:26:23;;;;;;;7.60;5.70;;;;;;;4.43;100.00;99083.61;87790;272;23641;-76
2024/03/25 02:28:24;;;;;;;6.80;5.90;;;;;;;4.40;100.00;99080.70;87343;271;136468;-74
2024/03/25 02:30:24;;;;;;;5.50;4.90;;;;;;;4.38;100.00;99075.23;87479;281;22610;-75
2024/03/25 02:32:25;;;;;;;7.40;6.70;;;;;;;4.36;100.00;99067.94;87441;272;136572;-76
2024/03/25 02:34:26;;;;;;;6.60;6.00;;;;;;;4.31;100.00;99069.00;87643;276;22574;-74
2024/03/25 02:36:27;;;;;;;7.40;6.10;;;;;;;4.30;100.00;99072.69;87515;280;136494;-73
2024/03/25 02:38:28;;;;;;;6.40;5.80;;;;;;;4.32;100.00;99077.58;86984;273;22556;-75
2024/03/25 02:40:29;;;;;;;8.50;4.50;;;;;;;4.33;100.00;99084.15;87325;272;136206;-76
2024/03/25 02:42:29;;;;;;;6.30;5.30;;;;;;;4.33;100.00;99082.94;87449;270;25232;-75
2024/03/25 02:44:31;;;;;;;6.80;5.60;;;;;;;4.35;100.00;99085.30;87418;268;136174;-76
2024/03/25 02:46:33;;;;;;;7.30;6.50;;;;;;;4.37;100.00;99085.41;87476;273;22551;-75
2024/03/25 02:48:34;;;;;;;7.70;5.00;;;;;;;4.37;100.00;99093.65;87347;272;136574;-74
2024/03/25 02:50:35;;;;;;;7.00;5.00;;;;;;;4.38;100.00;99099.14;87400;276;24001;-75
2024/03/25 02:52:36;;;;;;;7.00;5.40;;;;;;;4.39;100.00;99107.12;87399;271;136192;-75
2024/03/25 02:54:36;;;;;;;6.70;5.00;;;;;;;4.41;100.00;99106.08;87636;268;22539;-74
2024/03/25 02:56:37;;;;;;;6.30;5.40;;;;;;;4.41;100.00;99107.27;87335;268;138703;-77
2024/03/25 02:58:38;;;;;;;7.00;6.30;;;;;;;4.42;100.00;99103.06;87363;279;22587;-76
2024/03/25 03:00:38;;;;;;;8.30;7.00;;;;;;;4.41;100.00;99096.85;87425;271;136238;-76
2024/03/25 03:02:39;;;;;;;7.10;6.40;;;;;;;4.42;100.00;99103.56;87387;284;23375;-76
2024/03/25 03:04:40;;;;;;;8.30;6.60;;;;;;;4.46;100.00;99119.04;86833;271;841379;-72
2024/03/25 03:06:41;;;;;;;8.40;6.80;;;;;;;4.48;100.00;99123.70;86714;270;24001;-73
2024/03/25 03:08:41;;;;;;;8.60;7.20;;;;;;;4.48;100.00;99121.88;86902;271;136692;-74
2024/03/25 03:10:42;;;;;;;8.10;7.30;;;;;;;4.50;100.00;99124.37;86968;269;22547;-74
2024/03/25 03:12:42;;;;;;;8.10;7.20;;;;;;;4.52;100.00;99124.70;86912;265;136641;-74
2024/03/25 03:14:43;;;;;;;9.60;8.10;;;;;;;4.51;100.00;99130.90;87153;271;22645;-73
2024/03/25 03:16:44;;;;;;;9.00;7.50;;;;;;;4.51;100.00;99138.35;87215;268;138030;-74
2024/03/25 03:18:44;;;;;;;8.60;7.70;;;;;;;4.50;100.00;99142.81;87721;270;25124;-73
2024/03/25 03:20:45;;;;;;;10.10;8.70;;;;;;;4.51;100.00;99149.10;87492;267;136383;-74
2024/03/25 03:22:46;;;;;;;9.10;7.40;;;;;;;4.50;100.00;99157.78;87453;268;22577;-73
2024/03/25 03:24:47;;;;;;;8.50;6.40;;;;;;;4.49;100.00;99162.08;87037;271;136519;-76
2024/03/25 03:26:47;;;;;;;9.70;7.60;;;;;;;4.48;100.00;99160.43;87051;271;22752;-73
2024/03/25 03:28:48;;;;;;;9.80;7.60;;;;;;;4.46;100.00;99162.93;87035;271;137698;-72
2024/03/25 03:30:49;;;;;;;7.20;6.20;;;;;;;4.44;100.00;99159.36;87241;266;22572;-74
2024/03/25 03:32:50;;;;;;;9.30;7.00;;;;;;;4.40;100.00;99149.63;87152;278;135984;-73
2024/03/25 03:34:50;;;;;;;6.50;5.20;;;;;;;4.38;100.00;99139.31;87122;280;23576;-77
2024/03/25 03:36:51;;;;;;;6.00;5.40;;;;;;;4.33;100.00;99129.47;87302;279;137724;-75
2024/03/25 03:38:52;;;;;;;5.80;5.10;;;;;;;4.29;100.00;99127.77;87602;266;24078;-72
2024/03/25 03:41:02;;;;;;;5.10;4.60;;;;;;;4.25;100.00;99130.55;87051;278;136786;-72
2024/03/25 03:43:03;;;;;;;5.80;4.50;;;;;;;4.22;100.00;99129.59;87084;272;22586;-73
2024/03/25 03:45:05;;;;;;;9.20;5.50;;;;;;;4.19;100.00;99129.05;86961;276;136931;-74
2024/03/25 03:47:06;;;;;;;5.60;5.10;;;;;;;4.14;100.00;99132.25;87704;276;22633;-72
2024/03/25 03:49:07;;;;;;;4.90;4.50;;;;;;;4.10;100.00;99130.86;86766;269;138089;-72
2024/03/25 03:51:08;;;;;;;6.40;5.80;;;;;;;4.07;100.00;99134.01;87104;280;22563;-72
2024/03/25 03:53:09;;;;;;;6.10;5.20;;;;;;;4.06;100.00;99135.54;87109;280;136405;-72
2024/03/25 03:55:10;;;;;;;5.40;4.80;;;;;;;4.06;100.00;99139.96;87276;278;25348;-71
2024/03/25 03:57:11;;;;;;;8.50;5.90;;;;;;;4.05;100.00;99141.60;87060;268;136308;-71
2024/03/25 03:59:11;;;;;;;5.70;5.10;;;;;;;4.05;100.00;99143.23;87140;281;24236;-73
2024/03/25 04:01:16;;;;;;;8.40;6.70;;;;;;;4.06;100.00;99146.98;86981;271;137800;-73
2024/03/25 04:03:17;;;;;;;6.20;5.50;;;;;;;4.12;100.00;99148.55;87123;280;24052;-73
2024/03/25 04:05:18;;;;;;;7.30;5.90;;;;;;;4.17;100.00;99141.53;87163;271;136419;-75
2024/03/25 04:07:18;;;;;;;11.70;6.60;;;;;;;4.22;100.00;99140.13;87530;272;22553;-72
2024/03/25 04:09:20;;;;;;;8.50;6.40;;;;;;;4.24;100.00;99144.45;87408;277;137627;-73
2024/03/25 04:11:20;;;;;;;10.40;6.30;;;;;;;4.25;100.00;99143.08;87549;273;22633;-72
2024/03/25 04:13:21;;;;;;;7.20;6.30;;;;;;;4.24;100.00;99142.66;87443;271;137954;-75
2024/03/25 04:15:22;;;;;;;9.10;6.50;;;;;;;4.23;100.00;99140.48;87486;268;22654;-73
2024/03/25 04:17:23;;;;;;;7.80;5.60;;;;;;;4.23;100.00;99138.41;87392;279;136497;-74
2024/03/25 04:19:24;;;;;;;7.90;6.00;;;;;;;4.21;100.00;99134.90;87469;270;22603;-71
2024/03/25 04:21:24;;;;;;;8.80;6.30;;;;;;;4.18;100.00;99133.02;86970;268;136959;-72
2024/03/25 04:23:26;;;;;;;7.90;6.40;;;;;;;4.12;100.00;99130.45;87088;279;25351;-73
2024/03/25 04:25:27;;;;;;;6.10;5.20;;;;;;;4.07;100.00;99132.46;87058;268;136745;-72
2024/03/25 04:27:27;;;;;;;8.40;5.80;;;;;;;4.04;100.00;99133.20;87096;272;22611;-74
2024/03/25 04:29:29;;;;;;;8.20;6.50;;;;;;;4.01;100.00;99134.92;87097;279;136832;-76
2024/03/25 04:31:29;;;;;;;7.20;5.90;;;;;;;4.01;100.00;99130.89;87099;272;22559;-75
2024/03/25 04:33:30;;;;;;;6.90;5.90;;;;;;;4.04;100.00;99126.98;87047;271;137217;-74
2024/03/25 04:35:31;;;;;;;8.90;5.80;;;;;;;4.08;100.00;99128.64;87562;271;22633;-75
2024/03/25 04:37:33;;;;;;;9.30;7.00;;;;;;;4.12;100.00;99133.16;87402;279;137755;-75
2024/03/25 04:39:33;;;;;;;8.70;6.40;;;;;;;4.14;100.00;99133.31;87094;272;25083;-74
2024/03/25 04:41:34;;;;;;;7.60;5.90;;;;;;;4.15;100.00;99132.23;87545;270;137093;-72
2024/03/25 04:43:35;;;;;;;7.20;6.50;;;;;;;4.17;100.00;99129.09;87320;279;25205;-73
2024/03/25 04:45:35;;;;;;;7.60;6.60;;;;;;;4.20;100.00;99126.59;87484;272;136418;-73
2024/03/25 04:47:36;;;;;;;9.10;7.40;;;;;;;4.24;100.00;99119.74;87671;277;22526;-74
2024/03/25 04:49:37;;;;;;;13.20;7.40;;;;;;;4.26;100.00;99117.63;87401;275;136317;-75
2024/03/25 04:51:38;;;;;;;11.00;8.60;;;;;;;4.27;100.00;99117.30;87585;276;22552;-75
2024/03/25 04:53:39;;;;;;;12.90;9.50;;;;;;;4.26;100.00;99115.35;87235;279;136305;-73
2024/03/25 04:55:39;;;;;;;7.90;7.10;;;;;;;4.22;100.00;99107.14;87400;268;22745;-74
2024/03/25 04:57:40;;;;;;;7.40;5.70;;;;;;;4.18;100.00;99107.83;86888;269;136409;-73
2024/03/25 04:59:41;;;;;;;6.20;5.50;;;;;;;4.14;100.00;99110.07;87310;271;23896;-73
2024/03/25 05:01:42;;;;;;;6.90;5.50;;;;;;;4.08;100.00;99114.39;87217;271;136257;-72
2024/03/25 05:03:43;;;;;;;6.20;4.50;;;;;;;4.04;100.00;99117.16;87535;273;23429;-73
2024/03/25 05:05:43;;;;;;;8.40;5.50;;;;;;;4.01;100.00;99113.48;87615;268;136405;-72
2024/03/25 05:07:44;;;;;;;4.50;4.10;;;;;;;3.99;100.00;99109.81;87529;278;24161;-70
2024/03/25 05:09:45;;;;;;;7.40;5.50;;;;;;;3.98;100.00;99104.17;87389;270;136022;-71
2024/03/25 05:11:46;;;;;;;5.40;3.80;;;;;;;3.97;100.00;99106.41;87656;270;22557;-72
2024/03/25 05:13:48;;;;;;;6.60;5.30;;;;;;;3.97;100.00;99106.77;87038;270;136237;-73
2024/03/25 05:15:52;;;;;;;5.40;4.80;;;;;;;4.00;100.00;99107.43;87024;271;24014;-71
2024/03/25 05:17:53;;;;;;;5.50;4.60;;;;;;;4.04;100.00;99108.59;87342;280;137588;-73
2024/03/25 05:19:54;;;;;;;6.40;5.20;;;;;;;4.07;100.00;99110.80;87541;271;24183;-72
2024/03/25 05:21:54;;;;;;;7.10;4.60;;;;;;;4.09;100.00;99112.50;87382;271;135996;-71
2024/03/25 05:23:55;;;;;;;5.90;5.00;;;;;;;4.12;100.00;99111.38;87468;271;22564;-71
2024/03/25 05:25:56;;;;;;;6.40;4.90;;;;;;;4.17;100.00;99113.20;87392;280;135864;-71
2024/03/25 05:27:57;;;;;;;5.90;5.30;;;;;;;4.25;100.00;99111.43;87457;272;26188;-71
2024/03/25 05:29:57;;;;;;;6.40;5.50;;;;;;;4.34;100.00;99110.95;87093;270;136543;-73
2024/03/25 05:31:59;;;;;;;8.40;5.60;;;;;;;4.40;100.00;99113.77;88059;279;25188;-81
2024/03/25 05:34:02;;;;;;;6.10;4.90;;;;;;;4.43;100.00;99119.39;87253;280;135960;-86
2024/03/25 05:36:03;;;;;;;6.90;5.80;;;;;;;4.45;100.00;99117.83;87327;272;24010;-70
2024/03/25 05:38:04;;;;;;;6.20;4.80;;;;;;;4.51;100.00;99121.97;87636;272;22627;-74
2024/03/25 05:40:05;;;;;;;5.10;4.60;;;;;;;4.54;100.00;99114.79;87475;275;138012;-74
2024/03/25 05:42:06;;;;;;;5.80;4.50;;;;;;;4.55;100.00;99113.77;87639;268;22578;-74
2024/03/25 05:44:07;;;;;;;5.00;3.80;;;;;;;4.57;100.00;99112.54;87305;271;138772;-75
2024/03/25 05:46:08;;;;;;;4.50;4.00;;;;;;;4.56;100.00;99113.11;87393;268;24001;-72
2024/03/25 05:48:08;;;;;;;5.40;4.80;;;;;;;4.55;100.00;99123.20;87490;272;138094;-72
2024/03/25 05:50:09;;;;;;;6.20;4.70;;;;;;;4.52;100.00;99123.44;87430;264;24234;-72
2024/03/25 05:52:10;;;;;;;6.30;5.60;;;;;;;4.48;100.00;99125.58;87505;268;136301;-75
2024/03/25 05:54:10;;;;;;;5.70;4.50;;;;;;;4.53;100.00;99122.45;87585;272;22652;-74
2024/03/25 05:56:11;;;;;;;9.50;5.20;;;;;;;4.50;100.00;99118.86;87437;276;138426;-72
2024/03/25 05:58:12;;;;;;;5.30;4.80;;;;;;;4.48;100.00;99117.56;87580;267;25124;-71
2024/03/25 06:00:13;;;;;;;6.20;4.60;;;;;;;4.48;100.00;99116.68;87731;270;136495;-72
2024/03/25 06:02:14;;;;;;;4.70;4.30;;;;;;;4.50;100.00;99111.84;87387;280;22565;-74
2024/03/25 06:04:14;;;;;;;6.50;3.90;;;;;;;4.55;100.00;99108.26;87193;274;136995;-77
2024/03/25 06:06:15;;;;;;;5.80;4.50;;;;;;;4.63;100.00;99113.53;87483;272;22579;-74
2024/03/25 06:08:20;;;;;;;5.70;3.90;;;;;;;4.72;100.00;99120.77;87593;276;137124;-75
2024/03/25 06:10:21;;;;;;;3.90;3.60;;;;;;;4.80;100.00;99123.87;87519;279;22697;-73
2024/03/25 06:12:22;;;;;;;7.20;4.60;;;;;;;4.84;100.00;99120.51;87229;281;137718;-70
2024/03/25 06:14:22;;;;;;;5.80;3.70;;;;;;;4.86;100.00;99116.40;87251;271;22551;-72
2024/03/25 06:16:23;;;;;;;6.40;4.60;;;;;;;4.88;100.00;99113.62;87390;279;137395;-79
2024/03/25 06:18:27;;;;;;;5.20;4.70;;;;;;;4.93;100.00;99110.86;87289;276;22570;-71
2024/03/25 06:20:27;;;;;;;6.30;5.20;;;;;;;4.99;100.00;99113.73;87124;273;138493;-75
2024/03/25 06:22:28;;;;;;;5.30;4.00;;;;;;;5.04;100.00;99119.23;87355;272;25307;-72
2024/03/25 06:24:29;;;;;;;5.10;4.50;;;;;;;5.09;100.00;99121.55;87179;269;136592;-74
2024/03/25 06:26:30;;;;;;;6.10;4.60;;;;;;;5.17;100.00;99130.23;87726;271;22529;-72
2024/03/25 06:28:31;;;;;;;4.70;3.60;;;;;;;5.26;100.00;99133.80;87211;276;136301;-74
2024/03/25 06:35:10;;;;;;;3.70;3.40;;;;;;;5.51;100.00;99149.64;87338;280;25072;-72
2024/03/25 06:37:11;;;;;;;4.10;3.50;;;;;;;5.55;100.00;99154.42;87359;271;136400;-77
2024/03/25 06:39:11;;;;;;;5.30;3.20;;;;;;;5.58;100.00;99151.92;87502;271;22663;-76
2024/03/25 06:41:12;;;;;;;3.40;2.80;;;;;;;5.62;100.00;99153.69;87560;267;137677;-72
2024/03/25 06:43:16;;;;;;;3.80;3.40;;;;;;;5.71;100.00;99159.27;87364;280;24906;-72
2024/03/25 06:45:17;;;;;;;4.40;3.00;;;;;;;5.75;100.00;99161.33;87450;268;138352;-76
2024/03/25 06:47:18;;;;;;;6.40;3.50;;;;;;;5.84;100.00;99158.33;87604;271;25214;-71
2024/03/25 06:49:18;;;;;;;4.50;3.50;;;;;;;5.89;100.00;99159.98;87587;266;137429;-73
2024/03/25 06:51:19;;;;;;;5.00;2.70;;;;;;;5.96;100.00;99166.94;87355;279;22554;-74
2024/03/25 06:53:20;;;;;;;3.00;2.60;;;;;;;6.02;100.00;99174.64;87444;268;136314;-75
2024/03/25 06:55:22;;;;;;;5.30;3.00;;;;;;;6.09;100.00;99178.13;87457;277;22541;-70
2024/03/25 06:57:23;;;;;;;3.60;2.40;;;;;;;6.10;100.00;99180.44;87395;276;136282;-73
2024/03/25 06:59:24;;;;;;;3.60;3.00;;;;;;;6.10;100.00;99181.80;87423;271;22508;-72
2024/03/25 07:01:25;;;;;;;4.10;3.70;;;;;;;6.11;100.00;99178.02;87225;279;136249;-75
2024/03/25 07:03:25;;;;;;;5.40;3.40;;;;;;;6.11;100.00;99173.75;87581;278;25105;-71
2024/03/25 07:07:24;;;;;;;3.60;3.00;;;;;;;6.06;100.00;99163.89;85459;300;603915;-72
2024/03/25 07:09:25;;;;;;;4.50;2.70;;;;;;;6.11;100.00;99160.58;86487;288;137618;-71
2024/03/25 07:11:26;;;;;;;4.60;1.70;;;;;;;6.17;100.00;99163.35;86598;287;28843;-73
2024/03/25 07:13:26;;;;;;;7.60;2.60;;;;;;;6.21;100.00;99165.98;86329;283;135907;-75
2024/03/25 07:15:27;;;;;;;6.90;2.00;;;;;;;6.28;100.00;99157.71;86465;292;24217;-77
2024/03/25 07:17:28;;;;;;;5.90;2.20;;;;;;;6.38;100.00;99161.73;86563;291;135534;-72
2024/03/25 07:19:28;;;;;;;1.70;1.30;;;;;;;6.48;100.00;99169.02;86698;287;22573;-76
2024/03/25 07:21:29;;;;;;;5.00;3.00;;;;;;;6.58;100.00;99168.20;85660;287;786563;-73
2024/03/25 07:23:30;;;;;;;2.10;1.90;;;;;;;6.66;100.00;99168.39;86505;287;22566;-72
2024/03/25 07:25:31;;;;;;;4.50;1.90;;;;;;;6.74;100.00;99169.87;86111;289;137229;-73
2024/03/25 07:27:32;;;;;;;5.40;2.00;;;;;;;6.77;100.00;99173.48;86471;290;22594;-73
2024/03/25 07:29:33;;;;;;;3.30;1.70;;;;;;;6.79;100.00;99171.91;86104;286;136042;-72
2024/03/25 07:31:33;;;;;;;4.90;1.30;;;;;;;6.79;100.00;99170.08;86497;290;22586;-73
2024/03/25 07:33:34;;;;;;;4.00;1.80;;;;;;;6.82;100.00;99165.26;86875;283;136277;-76
2024/03/25 07:35:36;;;;;;;3.70;1.50;;;;;;;6.87;100.00;99167.33;87114;282;24141;-75
2024/03/25 07:37:36;;;;;;;2.20;1.10;;;;;;;6.94;100.00;99166.11;86977;270;136058;-76
2024/03/25 07:39:40;;;;;;;4.20;1.60;;;;;;;7.01;100.00;99166.68;87063;281;22591;-75
2024/03/25 07:41:41;;;;;;;3.20;2.00;;;;;;;7.04;100.00;99169.80;87078;283;137225;-76
2024/03/25 07:43:41;;;;;;;2.50;1.30;;;;;;;7.05;100.00;99171.64;87488;274;22657;-74
2024/03/25 07:45:42;;;;;;;2.10;1.30;;;;;;;7.06;100.00;99176.77;87423;271;135722;-73
2024/03/25 07:47:43;;;;;;;3.00;1.40;;;;;;;7.09;100.00;99174.35;87284;267;23453;-76
2024/03/25 07:49:46;;;;;;;1.60;0.90;;;;;;;7.13;100.00;99173.45;87687;269;135524;-76
2024/03/25 07:51:46;;;;;;;2.20;1.20;;;;;;;7.15;100.00;99176.88;87633;269;22563;-76
2024/03/25 07:53:47;;;;;;;1.60;0.80;;;;;;;7.16;100.00;99179.82;87572;264;136279;-74
2024/03/25 07:55:48;;;;;;;1.90;0.80;;;;;;;7.21;100.00;99176.55;87655;267;22768;-74
2024/03/25 07:57:49;;;;;;;2.90;0.90;;;;;;;7.26;100.00;99184.20;87505;266;136370;-73
2024/03/25 07:59:49;;;;;;;3.30;1.10;;;;;;;7.30;100.00;99181.36;87635;272;22749;-72
2024/03/25 08:01:50;;;;;;;1.60;0.20;;;;;;;7.35;100.00;99180.76;87347;268;137072;-74
2024/03/25 08:03:51;;;;;;;2.00;0.30;;;;;;;7.40;100.00;99185.10;87691;275;22566;-76
2024/03/25 08:05:52;;;;;;;0.80;0.20;;;;;;;7.43;100.00;99180.30;87743;273;135664;-75
2024/03/25 08:07:53;;;;;;;1.10;0.60;;;;;;;7.46;100.00;99183.02;87626;272;22560;-72
2024/03/25 08:09:54;;;;;;;2.80;0.40;;;;;;;7.51;100.00;99176.45;87537;275;136101;-74
2024/03/25 08:11:55;;;;;;;2.20;0.90;;;;;;;7.54;100.00;99180.56;87478;279;22537;-75
2024/03/25 08:13:55;;;;;;;1.40;0.30;;;;;;;7.57;100.00;99181.55;87633;278;136192;-72
2024/03/25 08:15:57;;;;;;;1.50;0.80;;;;;;;7.58;100.00;99190.98;87132;267;22540;-72
2024/03/25 08:17:57;;;;;;;2.00;0.30;;;;;;;7.56;100.00;99187.23;86832;269;136074;-73
2024/03/25 08:19:58;;;;;;;2.10;0.90;;;;;;;7.53;100.00;99185.98;87080;266;22709;-72
2024/03/25 08:21:58;;;;;;;1.30;0.70;;;;;;;7.54;100.00;99187.98;87332;266;135216;-72
2024/03/25 08:23:59;;;;;;;2.60;0.60;;;;;;;7.55;100.00;99186.69;87624;271;22660;-74
2024/03/25 08:26:01;;;;;;;0.60;0.60;;;;;;;7.55;100.00;99189.14;87374;272;136239;-74
2024/03/25 08:28:02;;;;;;;3.30;1.00;;;;;;;7.54;100.00;99199.70;87553;279;24903;-71
2024/03/25 08:30:04;;;;;;;4.10;0.60;;;;;;;7.52;100.00;99194.80;87106;270;23921;-75
2024/03/25 08:32:05;;;;;;;2.00;0.40;;;;;;;7.51;100.00;99197.02;87832;266;136277;-76
2024/03/25 08:34:07;;;;;;;1.30;0.70;;;;;;;7.51;100.00;99197.72;87943;270;22535;-74
2024/03/25 08:36:08;;;;;;;2.20;0.50;;;;;;;7.50;100.00;99189.52;87450;272;135615;-73
2024/03/25 08:38:08;;;;;;;1.90;0.60;;;;;;;7.48;100.00;99180.52;87944;264;23692;-75
2024/03/25 08:40:09;;;;;;;2.90;0.50;;;;;;;7.51;100.00;99187.36;87400;281;135851;-72
2024/03/25 08:42:10;;;;;;;1.20;0.40;;;;;;;7.55;100.00;99193.14;87638;267;25086;-73
2024/03/25 08:44:13;;;;;;;1.10;0.40;;;;;;;7.61;100.00;99194.41;87388;272;135390;-69
2024/03/25 08:46:13;;;;;;;2.00;1.10;;;;;;;7.65;100.00;99199.38;86980;273;22983;-70
2024/03/25 08:48:14;;;;;;;3.70;1.40;;;;;;;7.69;100.00;99191.77;87109;270;135453;-72
2024/03/25 08:50:15;;;;;;;2.80;0.70;;;;;;;7.72;100.00;99188.39;87049;267;23802;-71
2024/03/25 08:52:16;;;;;;;2.10;0.60;;;;;;;7.75;100.00;99186.40;87054;278;136058;-72
2024/03/25 08:54:16;;;;;;;1.60;0.80;;;;;;;7.78;100.00;99181.80;86991;276;24145;-74
2024/03/25 08:56:17;;;;;;;3.30;0.90;;;;;;;7.82;100.00;99182.88;87465;271;135582;-76
2024/03/25 08:58:18;;;;;;;3.90;0.70;;;;;;;7.88;100.00;99183.14;87573;263;22569;-74
2024/03/25 09:00:18;;;;;;;2.10;0.90;;;;;;;7.92;100.00;99179.09;87411;274;135319;-74
2024/03/25 09:02:19;;;;;;;1.50;0.40;;;;;;;7.97;100.00;99186.16;87626;268;23789;-72
2024/03/25 09:04:20;;;;;;;2.30;0.60;;;;;;;8.04;100.00;99193.36;87537;270;135513;-73
2024/03/25 09:06:20;;;;;;;3.70;1.10;;;;;;;8.06;100.00;99197.13;87443;274;23786;-71
2024/03/25 09:08:22;;;;;;;2.50;0.50;;;;;;;8.04;100.00;99203.94;86989;270;137544;-70
2024/03/25 09:12:41;;;;;;;1.50;0.80;;;;;;;7.99;100.00;99196.94;86975;271;136176;-69
2024/03/25 09:14:43;;;;;;;1.90;0.30;;;;;;;7.96;100.00;99201.75;87275;279;24023;-72
2024/03/25 09:16:43;;;;;;;6.40;1.50;;;;;;;7.91;100.00;99192.14;86941;264;135332;-71
2024/03/25 09:18:44;;;;;;;3.40;0.90;;;;;;;7.87;100.00;99194.23;86963;267;23700;-71
2024/03/25 09:20:45;;;;;;;1.60;0.50;;;;;;;7.86;100.00;99180.73;86694;268;135365;-70
2024/03/25 09:22:48;;;;;;;2.10;0.80;;;;;;;7.86;100.00;99189.23;86806;272;23261;-73
2024/03/25 09:24:49;;;;;;;2.50;0.80;;;;;;;7.85;100.00;99182.27;87237;269;134805;-70
2024/03/25 09:26:50;;;;;;;3.70;0.90;;;;;;;7.83;100.00;99180.08;86914;279;22574;-70
2024/03/25 09:28:50;;;;;;;5.50;1.20;;;;;;;7.81;100.00;99174.70;87772;273;136676;-71
2024/03/25 09:30:51;;;;;;;3.00;0.80;;;;;;;7.80;100.00;99174.26;86995;267;22591;-71
2024/03/25 09:32:52;;;;;;;1.10;0.50;;;;;;;7.80;100.00;99180.79;86890;268;135376;-69
2024/03/25 09:34:52;;;;;;;4.40;1.90;;;;;;;7.80;100.00;99176.42;87054;274;25197;-73
2024/03/25 09:36:53;;;;;;;2.60;0.80;;;;;;;7.79;100.00;99166.47;87412;278;136219;-71
2024/03/25 09:38:54;;;;;;;3.90;1.30;;;;;;;7.78;100.00;99169.73;87126;274;24946;-72
2024/03/25 09:40:57;;;;;;;1.40;0.40;;;;;;;7.80;100.00;99176.75;87744;270;135415;-73